createdAt,value
2023-03-08T00:01:22.669Z,3.10
2023-03-08T00:03:53.523Z,2.95
2023-03-08T00:06:22.488Z,2.83
2023-03-08T00:08:50.808Z,4.53
2023-03-08T00:11:19.173Z,3.40
2023-03-08T00:13:48.864Z,2.05
2023-03-08T00:16:17.254Z,6.80
2023-03-08T00:18:45.674Z,3.70
2023-03-08T00:21:16.863Z,4.25
2023-03-08T00:23:46.390Z,7.28
2023-03-08T00:26:15.471Z,5.18
2023-03-08T00:28:43.896Z,2.55
2023-03-08T00:31:15.073Z,3.38
2023-03-08T00:33:43.619Z,3.20
2023-03-08T00:36:18.015Z,5.32
2023-03-08T00:38:47.338Z,3.30
2023-03-08T00:41:16.152Z,3.90
2023-03-08T00:43:45.534Z,6.15
2023-03-08T00:46:15.474Z,3.90
2023-03-08T00:48:44.473Z,4.78
2023-03-08T00:51:15.543Z,7.57
2023-03-08T00:53:44.040Z,8.02
2023-03-08T00:56:12.954Z,5.00
2023-03-08T00:58:42.949Z,6.18
2023-03-08T01:01:17.482Z,6.65
2023-03-08T01:03:47.776Z,10.38
2023-03-08T01:06:17.284Z,7.32
2023-03-08T01:08:46.080Z,6.63
2023-03-08T01:11:17.726Z,9.07
2023-03-08T01:13:47.599Z,7.00
2023-03-08T01:16:19.304Z,21.02
2023-03-08T01:18:48.121Z,8.65
2023-03-08T01:21:16.994Z,11.25
2023-03-08T01:23:45.582Z,14.70
2023-03-08T01:26:15.737Z,11.25
2023-03-08T01:28:44.738Z,13.32
2023-03-08T01:31:15.056Z,9.32
2023-03-08T01:33:45.173Z,17.60
2023-03-08T01:36:16.081Z,9.57
2023-03-08T01:38:46.495Z,9.18
2023-03-08T01:41:18.538Z,7.40
2023-03-08T01:43:47.822Z,10.63
2023-03-08T01:46:25.725Z,13.70
2023-03-08T01:49:09.328Z,16.70
2023-03-08T01:51:43.608Z,10.05
2023-03-08T01:54:15.380Z,14.60
2023-03-08T01:56:45.405Z,11.50
2023-03-08T01:59:15.510Z,11.20
2023-03-08T02:01:44.108Z,14.30
2023-03-08T02:04:14.010Z,13.13
2023-03-08T02:06:44.005Z,10.82
2023-03-08T02:09:13.309Z,12.50
2023-03-08T02:11:43.491Z,8.07
2023-03-08T02:14:12.044Z,4.95
2023-03-08T02:16:44.353Z,10.82
2023-03-08T02:19:21.600Z,10.55
2023-03-08T02:21:49.907Z,20.17
2023-03-08T02:24:22.132Z,13.10
2023-03-08T02:26:52.401Z,13.77
2023-03-08T02:29:20.906Z,15.27
2023-03-08T02:31:49.227Z,9.73
2023-03-08T02:34:18.261Z,15.40
2023-03-08T02:36:46.632Z,11.75
2023-03-08T02:39:15.846Z,8.23
2023-03-08T02:41:45.568Z,9.32
2023-03-08T02:44:15.508Z,10.48
2023-03-08T02:46:43.880Z,11.75
2023-03-08T02:49:13.276Z,7.07
2023-03-08T02:51:41.595Z,11.13
2023-03-08T02:54:10.320Z,8.13
2023-03-08T02:56:38.572Z,11.10
2023-03-08T02:59:09.590Z,9.40
2023-03-08T03:01:38.114Z,9.05
2023-03-08T03:04:07.170Z,10.45
2023-03-08T03:06:36.396Z,7.78
2023-03-08T03:09:08.196Z,3.53
2023-03-08T03:11:37.223Z,6.50
2023-03-08T03:14:05.887Z,7.45
2023-03-08T03:16:40.658Z,6.70
2023-03-08T03:19:11.051Z,7.20
2023-03-08T03:21:40.724Z,6.13
2023-03-08T03:24:09.491Z,6.97
2023-03-08T03:26:45.852Z,8.18
2023-03-08T03:29:14.277Z,4.53
2023-03-08T03:31:46.074Z,4.63
2023-03-08T03:34:15.808Z,4.30
2023-03-08T03:36:45.749Z,5.72
2023-03-08T03:39:14.922Z,5.40
2023-03-08T03:41:44.435Z,4.75
2023-03-08T03:44:15.771Z,5.43
2023-03-08T03:46:47.950Z,5.40
2023-03-08T03:49:21.127Z,9.90
2023-03-08T03:51:49.350Z,4.25
2023-03-08T03:54:25.340Z,7.45
2023-03-08T03:56:58.196Z,7.55
2023-03-08T03:59:30.323Z,3.85
2023-03-08T04:02:00.344Z,5.28
2023-03-08T04:04:40.278Z,8.38
2023-03-08T04:07:10.341Z,5.63
2023-03-08T04:09:42.991Z,4.85
2023-03-08T04:12:15.764Z,11.20
2023-03-08T04:14:45.479Z,7.53
2023-03-08T04:17:16.664Z,5.90
2023-03-08T04:19:50.617Z,3.28
2023-03-08T04:22:20.430Z,5.05
2023-03-08T04:24:55.251Z,8.38
2023-03-08T04:27:30.714Z,8.38
2023-03-08T04:29:59.107Z,4.18
2023-03-08T04:32:32.441Z,9.70
2023-03-08T04:35:00.825Z,1.95
2023-03-08T04:37:31.680Z,8.88
2023-03-08T04:40:09.403Z,9.85
2023-03-08T04:42:44.126Z,6.07
2023-03-08T04:45:15.205Z,10.18
2023-03-08T04:47:45.934Z,7.28
2023-03-08T04:50:15.628Z,8.65
2023-03-08T04:52:45.000Z,5.03
2023-03-08T04:55:13.679Z,5.10
2023-03-08T04:57:42.218Z,4.35
2023-03-08T05:00:12.037Z,5.85
2023-03-08T05:02:42.866Z,8.07
2023-03-08T05:05:17.192Z,5.95
2023-03-08T05:07:46.282Z,8.32
2023-03-08T05:10:14.661Z,2.97
2023-03-08T05:12:43.512Z,3.63
2023-03-08T05:15:12.724Z,9.25
2023-03-08T05:17:41.120Z,5.28
2023-03-08T05:20:10.692Z,8.48
2023-03-08T05:22:57.698Z,9.38
2023-03-08T05:25:32.322Z,6.20
2023-03-08T05:28:01.975Z,8.48
2023-03-08T05:30:30.355Z,7.57
2023-03-08T05:32:59.021Z,4.75
2023-03-08T05:35:27.566Z,5.32
2023-03-08T05:37:58.890Z,11.52
2023-03-08T05:40:28.198Z,6.95
2023-03-08T05:42:57.623Z,6.95
2023-03-08T05:45:27.723Z,9.20
2023-03-08T05:47:57.257Z,8.15
2023-03-08T05:50:26.222Z,9.43
2023-03-08T05:52:55.640Z,9.52
2023-03-08T05:55:29.721Z,9.98
2023-03-08T05:57:59.753Z,10.05
2023-03-08T06:00:29.069Z,10.40
2023-03-08T06:03:04.023Z,9.20
2023-03-08T06:05:35.508Z,11.73
2023-03-08T06:08:04.603Z,6.75
2023-03-08T06:10:34.369Z,15.88
2023-03-08T06:13:03.517Z,10.60
2023-03-08T06:15:32.077Z,12.27
2023-03-08T06:18:01.614Z,10.85
2023-03-08T06:20:30.296Z,10.85
2023-03-08T06:22:58.957Z,14.98
2023-03-08T06:25:27.378Z,9.32
2023-03-08T06:27:57.752Z,10.90
2023-03-08T06:30:34.793Z,19.85
2023-03-08T06:33:05.476Z,12.75
2023-03-08T06:35:33.933Z,14.80
2023-03-08T06:38:03.987Z,12.93
2023-03-08T06:40:33.122Z,12.98
2023-03-08T06:43:02.917Z,19.52
2023-03-08T06:45:31.268Z,13.60
2023-03-08T06:47:59.580Z,13.38
2023-03-08T06:50:29.918Z,7.07
2023-03-08T06:52:58.238Z,13.52
2023-03-08T06:55:41.576Z,12.07
2023-03-08T06:58:11.363Z,10.00
2023-03-08T07:00:39.669Z,10.82
2023-03-08T07:03:08.382Z,21.50
2023-03-08T07:05:36.748Z,21.73
2023-03-08T07:08:05.360Z,10.90
2023-03-08T07:10:34.295Z,18.60
2023-03-08T07:13:02.586Z,15.90
2023-03-08T07:15:32.414Z,11.55
2023-03-08T07:18:00.942Z,15.48
2023-03-08T07:20:29.378Z,10.10
2023-03-08T07:22:59.032Z,8.77
2023-03-08T07:25:27.373Z,14.20
2023-03-08T07:27:55.921Z,10.85
2023-03-08T07:30:24.633Z,7.35
2023-03-08T07:32:55.693Z,10.07
2023-03-08T07:35:24.082Z,11.90
2023-03-08T07:37:52.389Z,27.05
2023-03-08T07:40:20.918Z,11.23
2023-03-08T07:42:49.727Z,11.93
2023-03-08T07:45:30.043Z,17.67
2023-03-08T07:47:59.768Z,13.15
2023-03-08T07:50:28.819Z,12.73
2023-03-08T07:52:57.078Z,11.48
2023-03-08T07:55:26.014Z,11.13
2023-03-08T07:57:54.272Z,10.88
2023-03-08T08:00:23.212Z,7.68
2023-03-08T08:02:54.062Z,8.13
2023-03-08T08:05:24.427Z,8.55
2023-03-08T08:07:52.729Z,10.85
2023-03-08T08:10:21.121Z,10.15
2023-03-08T08:12:49.401Z,8.07
2023-03-08T08:15:19.192Z,6.32
2023-03-08T08:17:47.760Z,13.90
2023-03-08T08:20:16.424Z,10.80
2023-03-08T08:22:46.037Z,8.07
2023-03-08T08:25:14.398Z,10.20
2023-03-08T08:27:42.715Z,9.73
2023-03-08T08:30:14.046Z,13.30
2023-03-08T08:32:42.456Z,8.65
2023-03-08T08:35:11.520Z,8.93
2023-03-08T08:37:39.799Z,12.02
2023-03-08T08:40:13.668Z,14.00
2023-03-08T08:42:42.027Z,10.10
2023-03-08T08:45:11.667Z,12.43
2023-03-08T08:47:39.904Z,8.43
2023-03-08T08:50:09.167Z,11.60
2023-03-08T08:52:37.412Z,12.88
2023-03-08T08:55:06.652Z,12.73
2023-03-08T08:57:37.305Z,13.77
2023-03-08T09:00:08.261Z,8.15
2023-03-08T09:02:36.559Z,13.50
2023-03-08T09:05:04.963Z,11.70
2023-03-08T09:07:33.233Z,39.25
2023-03-08T09:10:01.796Z,11.52
2023-03-08T09:12:31.989Z,14.15
2023-03-08T09:15:01.720Z,12.27
2023-03-08T09:17:30.590Z,10.80
2023-03-08T09:19:59.640Z,7.07
2023-03-08T09:22:27.921Z,15.57
2023-03-08T09:24:56.314Z,13.35
2023-03-08T09:27:24.722Z,9.73
2023-03-08T09:29:53.009Z,9.10
2023-03-08T09:32:22.916Z,8.05
2023-03-08T09:34:51.925Z,7.25
2023-03-08T09:37:20.960Z,10.18
2023-03-08T09:39:52.545Z,9.63
2023-03-08T09:42:24.260Z,9.77
2023-03-08T09:45:07.939Z,12.05
2023-03-08T09:47:48.892Z,8.73
2023-03-08T09:50:34.362Z,9.55
2023-03-08T09:53:08.991Z,11.00
2023-03-08T09:55:45.332Z,9.38
2023-03-08T09:58:22.010Z,14.82
2023-03-08T10:00:50.424Z,9.55
2023-03-08T10:03:46.497Z,11.52
2023-03-08T10:06:20.589Z,12.20
2023-03-08T10:08:57.231Z,13.65
2023-03-08T10:11:32.326Z,11.55
2023-03-08T10:14:07.530Z,11.35
2023-03-08T10:16:41.940Z,9.32
2023-03-08T10:19:18.277Z,13.70
2023-03-08T10:21:47.812Z,11.95
2023-03-08T10:24:19.263Z,13.50
2023-03-08T10:26:53.085Z,11.75
2023-03-08T10:29:22.034Z,8.10
2023-03-08T10:31:53.384Z,15.73
2023-03-08T10:34:26.836Z,9.77
2023-03-08T10:37:00.106Z,15.27
2023-03-08T10:39:29.282Z,10.25
2023-03-08T10:41:59.394Z,12.82
2023-03-08T10:44:34.027Z,8.80
2023-03-08T10:47:05.435Z,12.18
2023-03-08T10:49:35.082Z,13.15
2023-03-08T10:52:03.347Z,13.80
2023-03-08T10:54:31.779Z,12.48
2023-03-08T10:57:01.517Z,9.85
2023-03-08T10:59:33.316Z,21.15
2023-03-08T11:02:10.006Z,9.75
2023-03-08T11:04:39.853Z,10.38
2023-03-08T11:07:12.751Z,11.15
2023-03-08T11:09:41.157Z,13.32
2023-03-08T11:12:24.089Z,6.80
2023-03-08T11:14:52.927Z,12.38
2023-03-08T11:17:26.304Z,11.27
2023-03-08T11:20:11.587Z,11.93
2023-03-08T11:23:06.388Z,12.73
2023-03-08T11:25:42.796Z,20.70
2023-03-08T11:28:33.522Z,14.05
2023-03-08T11:31:15.196Z,9.00
2023-03-08T11:34:22.026Z,13.45
2023-03-08T11:39:28.367Z,9.38
2023-03-08T11:42:01.551Z,13.80
2023-03-08T11:44:44.250Z,7.28
2023-03-08T11:47:38.856Z,13.05
2023-03-08T11:50:13.968Z,18.95
2023-03-08T11:52:52.487Z,13.85
2023-03-08T11:55:43.301Z,12.70
2023-03-08T11:58:20.421Z,18.38
2023-03-08T12:00:51.644Z,22.23
2023-03-08T12:03:22.579Z,14.32
2023-03-08T12:05:53.753Z,13.45
2023-03-08T12:08:26.283Z,11.32
2023-03-08T12:10:58.073Z,17.73
2023-03-08T12:13:31.671Z,14.63
2023-03-08T12:16:06.151Z,15.60
2023-03-08T12:18:40.350Z,10.30
2023-03-08T12:21:19.719Z,17.25
2023-03-08T12:23:58.514Z,18.08
2023-03-08T12:26:30.956Z,11.48
2023-03-08T12:29:04.566Z,13.20
2023-03-08T12:31:36.783Z,20.67
2023-03-08T12:34:14.767Z,13.00
2023-03-08T12:36:45.341Z,10.50
2023-03-08T12:39:28.886Z,14.60
2023-03-08T12:42:06.852Z,17.33
2023-03-08T12:44:35.368Z,16.88
2023-03-08T12:47:20.943Z,15.95
2023-03-08T12:49:52.527Z,16.48
2023-03-08T12:52:32.050Z,12.18
2023-03-08T12:55:05.899Z,14.80
2023-03-08T12:57:38.088Z,14.07
2023-03-08T13:00:24.462Z,17.08
2023-03-08T13:03:01.870Z,12.38
2023-03-08T13:05:33.158Z,17.23
2023-03-08T13:08:21.705Z,19.23
2023-03-08T13:11:10.786Z,14.07
2023-03-08T13:13:50.184Z,18.70
2023-03-08T13:16:33.488Z,10.60
2023-03-08T13:19:22.302Z,17.42
2023-03-08T13:21:55.260Z,21.38
2023-03-08T13:24:37.022Z,25.73
2023-03-08T13:27:21.504Z,13.63
2023-03-08T13:29:50.445Z,14.32
2023-03-08T13:32:20.539Z,16.02
2023-03-08T13:35:00.139Z,12.48
2023-03-08T13:37:30.522Z,18.88
2023-03-08T13:40:00.178Z,34.03
2023-03-08T13:42:30.727Z,20.08
2023-03-08T13:45:09.434Z,14.02
2023-03-08T13:47:42.707Z,23.85
2023-03-08T13:50:19.866Z,17.83
2023-03-08T13:52:48.503Z,17.45
2023-03-08T13:55:21.922Z,24.02
2023-03-08T13:57:55.342Z,16.00
2023-03-08T14:00:33.741Z,19.45
2023-03-08T14:03:06.584Z,19.02
2023-03-08T14:05:43.099Z,22.45
2023-03-08T14:08:20.679Z,20.52
2023-03-08T14:10:53.025Z,17.50
2023-03-08T14:13:27.496Z,22.52
2023-03-08T14:15:58.181Z,18.53
2023-03-08T14:18:29.879Z,18.92
2023-03-08T14:21:06.695Z,25.05
2023-03-08T14:23:40.180Z,25.15
2023-03-08T14:26:24.206Z,21.70
2023-03-08T14:29:06.013Z,14.93
2023-03-08T14:31:34.404Z,11.88
2023-03-08T14:34:04.634Z,21.55
2023-03-08T14:36:35.238Z,14.02
2023-03-08T14:39:03.710Z,21.15
2023-03-08T14:41:34.762Z,19.05
2023-03-08T14:44:06.052Z,17.17
2023-03-08T14:46:34.978Z,17.42
2023-03-08T14:49:04.908Z,16.33
2023-03-08T14:51:41.845Z,27.70
2023-03-08T14:54:24.032Z,15.55
2023-03-08T14:56:53.009Z,24.42
2023-03-08T14:59:27.851Z,23.70
2023-03-08T15:04:26.651Z,21.25
2023-03-08T15:06:56.267Z,19.17
2023-03-08T15:09:26.231Z,19.40
2023-03-08T15:11:58.726Z,29.75
2023-03-08T15:14:30.535Z,18.55
2023-03-08T15:16:59.173Z,24.35
2023-03-08T15:19:27.643Z,21.35
2023-03-08T15:21:56.644Z,17.35
2023-03-08T15:24:25.018Z,17.58
2023-03-08T15:26:55.817Z,16.92
2023-03-08T15:29:31.510Z,33.30
2023-03-08T15:32:01.627Z,25.15
2023-03-08T15:34:29.875Z,19.10
2023-03-08T15:36:58.162Z,17.40
2023-03-08T15:39:27.598Z,19.63
2023-03-08T15:41:55.858Z,30.52
2023-03-08T15:44:24.080Z,23.33
2023-03-08T15:46:53.842Z,19.08
2023-03-08T15:49:22.080Z,23.83
2023-03-08T15:51:50.609Z,25.77
2023-03-08T15:54:18.849Z,23.80
2023-03-08T15:56:47.139Z,20.20
2023-03-08T15:59:15.353Z,19.23
2023-03-08T16:01:43.591Z,17.27
2023-03-08T16:04:13.271Z,19.60
2023-03-08T16:06:43.574Z,25.45
2023-03-08T16:09:11.815Z,23.92
2023-03-08T16:11:40.104Z,19.92
2023-03-08T16:14:08.337Z,21.90
2023-03-08T16:16:45.228Z,22.63
2023-03-08T16:19:15.531Z,23.00
2023-03-08T16:21:43.937Z,17.60
2023-03-08T16:24:12.580Z,28.67
2023-03-08T16:26:40.888Z,21.30
2023-03-08T16:29:09.377Z,25.10
2023-03-08T16:31:37.708Z,19.83
2023-03-08T16:34:06.807Z,29.67
2023-03-08T16:36:36.415Z,24.73
2023-03-08T16:39:05.676Z,18.30
2023-03-08T16:41:35.182Z,24.70
2023-03-08T16:44:04.318Z,25.80
2023-03-08T16:46:32.879Z,29.42
2023-03-08T16:49:01.786Z,20.40
2023-03-08T16:51:31.228Z,31.73
2023-03-08T16:54:01.269Z,34.85
2023-03-08T16:56:30.894Z,29.90
2023-03-08T16:59:01.213Z,19.88
2023-03-08T17:01:29.703Z,26.98
2023-03-08T17:03:58.639Z,26.90
2023-03-08T17:06:29.325Z,23.15
2023-03-08T17:09:00.142Z,27.85
2023-03-08T17:11:30.302Z,22.00
2023-03-08T17:14:01.481Z,28.17
2023-03-08T17:16:31.875Z,27.38
2023-03-08T17:19:01.160Z,31.25
2023-03-08T17:21:31.288Z,29.48
2023-03-08T17:24:01.437Z,30.67
2023-03-08T17:26:29.756Z,29.27
2023-03-08T17:28:58.042Z,28.38
2023-03-08T17:31:27.011Z,25.27
2023-03-08T17:33:55.670Z,35.67
2023-03-08T17:36:23.968Z,31.10
2023-03-08T17:38:54.346Z,29.02
2023-03-08T17:41:24.627Z,26.90
2023-03-08T17:43:56.021Z,29.00
2023-03-08T17:46:27.208Z,22.80
2023-03-08T17:48:56.899Z,21.77
2023-03-08T17:51:28.204Z,24.52
2023-03-08T17:53:58.390Z,21.88
2023-03-08T17:56:30.302Z,21.42
2023-03-08T17:58:59.480Z,29.17
2023-03-08T18:01:29.774Z,25.50
2023-03-08T18:03:59.055Z,26.45
2023-03-08T18:06:30.387Z,28.10
2023-03-08T18:08:59.717Z,27.33
2023-03-08T18:11:29.555Z,25.52
2023-03-08T18:13:57.848Z,28.08
2023-03-08T18:16:26.528Z,33.50
2023-03-08T18:18:54.886Z,32.17
2023-03-08T18:21:23.344Z,36.38
2023-03-08T18:23:54.959Z,26.60
2023-03-08T18:26:23.515Z,32.10
2023-03-08T18:28:53.234Z,40.50
2023-03-08T18:31:26.056Z,40.38
2023-03-08T18:33:55.466Z,38.67
2023-03-08T18:36:24.855Z,26.13
2023-03-08T18:38:53.276Z,30.17
2023-03-08T18:41:23.723Z,39.03
2023-03-08T18:43:54.661Z,40.95
2023-03-08T18:46:28.463Z,28.70
2023-03-08T18:48:56.945Z,29.33
2023-03-08T18:51:25.398Z,37.63
2023-03-08T18:53:56.098Z,30.10
2023-03-08T18:56:25.890Z,38.03
2023-03-08T18:58:58.722Z,31.00
2023-03-08T19:01:29.283Z,36.30
2023-03-08T19:03:59.096Z,33.25
2023-03-08T19:06:27.727Z,48.42
2023-03-08T19:08:56.789Z,35.85
2023-03-08T19:11:28.578Z,35.30
2023-03-08T19:14:00.538Z,41.03
2023-03-08T19:16:31.559Z,32.08
2023-03-08T19:19:02.474Z,30.15
2023-03-08T19:21:32.611Z,40.58
2023-03-08T19:24:02.048Z,26.05
2023-03-08T19:26:37.889Z,24.33
2023-03-08T19:29:10.589Z,29.10
2023-03-08T19:31:41.603Z,29.50
2023-03-08T19:34:10.541Z,23.77
2023-03-08T19:36:39.421Z,31.63
2023-03-08T19:39:10.956Z,27.60
2023-03-08T19:41:39.370Z,27.25
2023-03-08T19:44:10.332Z,34.97
2023-03-08T19:46:39.801Z,29.88
2023-03-08T19:49:12.601Z,37.30
2023-03-08T19:51:41.041Z,32.90
2023-03-08T19:54:10.055Z,32.42
2023-03-08T19:56:38.345Z,35.63
2023-03-08T19:59:08.152Z,33.28
2023-03-08T20:01:37.958Z,28.23
2023-03-08T20:04:06.872Z,29.15
2023-03-08T20:06:37.388Z,28.33
2023-03-08T20:09:07.419Z,32.55
2023-03-08T20:11:36.123Z,32.42
2023-03-08T20:14:04.835Z,24.38
2023-03-08T20:16:33.729Z,22.65
2023-03-08T20:19:03.404Z,30.92
2023-03-08T20:21:32.628Z,24.05
2023-03-08T20:24:02.491Z,23.35
2023-03-08T20:26:32.983Z,27.25
2023-03-08T20:29:01.666Z,34.90
2023-03-08T20:31:33.381Z,28.15
2023-03-08T20:34:03.100Z,36.90
2023-03-08T20:36:31.399Z,29.20
2023-03-08T20:39:02.141Z,26.40
2023-03-08T20:41:31.025Z,21.23
2023-03-08T20:43:59.342Z,35.60
2023-03-08T20:46:31.157Z,36.58
2023-03-08T20:48:59.716Z,25.38
2023-03-08T20:51:29.332Z,27.92
2023-03-08T20:53:58.256Z,35.15
2023-03-08T20:56:27.187Z,22.80
2023-03-08T20:59:00.429Z,32.30
2023-03-08T21:01:31.746Z,28.20
2023-03-08T21:04:00.182Z,29.50
2023-03-08T21:06:32.256Z,32.33
2023-03-08T21:09:00.913Z,25.83
2023-03-08T21:11:29.963Z,28.95
2023-03-08T21:13:58.335Z,30.75
2023-03-08T21:16:28.388Z,26.02
2023-03-08T21:18:58.142Z,29.15
2023-03-08T21:21:30.483Z,21.33
2023-03-08T21:24:01.917Z,23.13
2023-03-08T21:26:31.293Z,31.88
2023-03-08T21:29:02.193Z,30.08
2023-03-08T21:31:31.516Z,32.88
2023-03-08T21:34:01.994Z,35.83
2023-03-08T21:36:30.299Z,27.30
2023-03-08T21:39:00.860Z,24.30
2023-03-08T21:41:32.518Z,31.10
2023-03-08T21:44:02.686Z,31.50
2023-03-08T21:46:32.071Z,22.67
2023-03-08T21:49:00.393Z,25.55
2023-03-08T21:51:28.744Z,33.10
2023-03-08T21:53:59.530Z,24.70
2023-03-08T21:56:28.270Z,28.63
2023-03-08T21:58:57.073Z,27.83
2023-03-08T22:01:27.732Z,26.90
2023-03-08T22:03:56.774Z,28.08
2023-03-08T22:06:25.926Z,17.73
2023-03-08T22:08:54.887Z,21.52
2023-03-08T22:11:25.597Z,26.08
2023-03-08T22:13:57.038Z,22.60
2023-03-08T22:16:26.264Z,25.17
2023-03-08T22:18:55.503Z,27.45
2023-03-08T22:21:24.204Z,19.52
2023-03-08T22:23:53.159Z,25.88
2023-03-08T22:26:22.420Z,29.38
2023-03-08T22:28:54.015Z,21.60
2023-03-08T22:31:24.238Z,22.90
2023-03-08T22:33:52.791Z,24.70
2023-03-08T22:36:22.373Z,18.38
2023-03-08T22:38:51.036Z,21.40
2023-03-08T22:41:22.283Z,22.85
2023-03-08T22:43:52.935Z,24.95
2023-03-08T22:46:22.973Z,22.70
2023-03-08T22:48:52.980Z,14.55
2023-03-08T22:51:23.167Z,22.90
2023-03-08T22:53:52.001Z,19.35
2023-03-08T22:56:22.228Z,21.23
2023-03-08T22:58:52.227Z,14.15
2023-03-08T23:01:22.534Z,18.30
2023-03-08T23:03:51.792Z,16.98
2023-03-08T23:06:20.361Z,20.27
2023-03-08T23:08:49.239Z,20.92
2023-03-08T23:11:17.928Z,25.50
2023-03-08T23:13:46.216Z,19.10
2023-03-08T23:16:17.119Z,21.23
2023-03-08T23:18:48.399Z,16.38
2023-03-08T23:21:18.713Z,22.88
2023-03-08T23:23:47.716Z,24.73
2023-03-08T23:26:18.971Z,22.83
2023-03-08T23:28:47.200Z,22.55
2023-03-08T23:31:19.062Z,26.48
2023-03-08T23:33:48.167Z,23.92
2023-03-08T23:36:17.965Z,19.85
2023-03-08T23:38:46.562Z,19.45
2023-03-08T23:41:15.541Z,26.30
2023-03-08T23:43:44.866Z,25.23
2023-03-08T23:46:16.194Z,20.77
2023-03-08T23:48:47.893Z,21.90
2023-03-08T23:51:18.735Z,29.15
2023-03-08T23:53:49.341Z,23.67
2023-03-08T23:56:26.623Z,26.77
2023-03-08T23:58:56.542Z,24.83
